Terminal Aerodrome Forecast
Issued by NWS

Home | Current Version | Previous Version | Text Only | Print | Product List | Glossary On
Versions: 1 2 3 4 5 6 7 8 9 10 11 12 13 14 15 16 17 18 19 20 21 22 23 24 25
000
FTUS41 KOKX 231100
TAFTEB
TAF
KTEB 231135Z 2312/2412 22008KT P6SM FEW100 SCT250
     FM231800 20010KT P6SM SCT050 BKN250 PROB30 2323/2402 28015G30KT
      5SM TSRA BKN050CB
     FM240200 VRB04KT P6SM SCT050 BKN250 PROB30 2402/2405 5SM TSRA
      BKN050CB
     FM241000 34006KT 6SM -SHRA BKN050=

USA.gov is the U.S. government's official web portal to all federal, state and local government web resources and services.